sensor_id;sensor_type;location;lat;lon;timestamp;pressure;altitude;pressure_sealevel;temperature;humidity
35519;BME280;21627;48.216;16.482;2023-03-20T00:02:21;99863.34;;;5.09;100.00
35519;BME280;21627;48.216;16.482;2023-03-20T00:04:49;99853.75;;;5.00;100.00
35519;BME280;21627;48.216;16.482;2023-03-20T00:07:17;99860.47;;;4.95;100.00
35519;BME280;21627;48.216;16.482;2023-03-20T00:09:44;99864.75;;;4.96;100.00
35519;BME280;21627;48.216;16.482;2023-03-20T00:12:19;99867.31;;;4.96;100.00
35519;BME280;21627;48.216;16.482;2023-03-20T00:14:48;99867.31;;;4.96;100.00
35519;BME280;21627;48.216;16.482;2023-03-20T00:17:19;99872.41;;;4.94;100.00
35519;BME280;21627;48.216;16.482;2023-03-20T00:19:47;99857.78;;;4.90;100.00
35519;BME280;21627;48.216;16.482;2023-03-20T00:22:14;99842.97;;;4.78;100.00
35519;BME280;21627;48.216;16.482;2023-03-20T00:24:42;99860.16;;;4.83;100.00
35519;BME280;21627;48.216;16.482;2023-03-20T00:27:15;99841.09;;;4.71;100.00
35519;BME280;21627;48.216;16.482;2023-03-20T00:29:43;99854.84;;;4.75;100.00
35519;BME280;21627;48.216;16.482;2023-03-20T00:32:12;99854.78;;;4.73;100.00
35519;BME280;21627;48.216;16.482;2023-03-20T00:34:39;99846.22;;;4.71;100.00
35519;BME280;21627;48.216;16.482;2023-03-20T00:37:09;99846.19;;;4.70;100.00
35519;BME280;21627;48.216;16.482;2023-03-20T00:39:37;99846.03;;;4.64;100.00
35519;BME280;21627;48.216;16.482;2023-03-20T00:42:05;99848.66;;;4.67;100.00
35519;BME280;21627;48.216;16.482;2023-03-20T00:44:36;99849.56;;;4.69;100.00
35519;BME280;21627;48.216;16.482;2023-03-20T00:47:19;99847.03;;;4.69;100.00
35519;BME280;21627;48.216;16.482;2023-03-20T00:49:49;99832.19;;;4.57;100.00
35519;BME280;21627;48.216;16.482;2023-03-20T00:52:18;99846.91;;;4.64;100.00
35519;BME280;21627;48.216;16.482;2023-03-20T00:54:46;99838.13;;;4.56;100.00
35519;BME280;21627;48.216;16.482;2023-03-20T00:57:29;99842.50;;;4.60;100.00
35519;BME280;21627;48.216;16.482;2023-03-20T01:02:47;99842.38;;;4.55;100.00
35519;BME280;21627;48.216;16.482;2023-03-20T01:05:14;99828.59;;;4.49;100.00
35519;BME280;21627;48.216;16.482;2023-03-20T01:07:41;99852.69;;;4.57;100.00
35519;BME280;21627;48.216;16.482;2023-03-20T01:10:10;99834.59;;;4.51;100.00
35519;BME280;21627;48.216;16.482;2023-03-20T01:12:41;99831.88;;;4.45;100.00
35519;BME280;21627;48.216;16.482;2023-03-20T01:15:22;99834.38;;;4.43;100.00
35519;BME280;21627;48.216;16.482;2023-03-20T01:17:50;99852.44;;;4.48;100.00
35519;BME280;21627;48.216;16.482;2023-03-20T01:20:26;99842.19;;;4.48;100.00
35519;BME280;21627;48.216;16.482;2023-03-20T01:22:54;99835.16;;;4.39;100.00
35519;BME280;21627;48.216;16.482;2023-03-20T01:25:21;99858.41;;;4.48;100.00
35519;BME280;21627;48.216;16.482;2023-03-20T01:27:52;99858.41;;;4.47;100.00
35519;BME280;21627;48.216;16.482;2023-03-20T01:30:24;99849.84;;;4.46;100.00
35519;BME280;21627;48.216;16.482;2023-03-20T01:32:52;99854.06;;;4.44;100.00
35519;BME280;21627;48.216;16.482;2023-03-20T01:35:25;99841.00;;;4.35;100.00
35519;BME280;21627;48.216;16.482;2023-03-20T01:37:54;99857.41;;;4.42;100.00
35519;BME280;21627;48.216;16.482;2023-03-20T01:43:20;99862.44;;;4.39;100.00
35519;BME280;21627;48.216;16.482;2023-03-20T01:46:19;99867.59;;;4.40;100.00
35519;BME280;21627;48.216;16.482;2023-03-20T01:51:24;99848.75;;;4.37;100.00
35519;BME280;21627;48.216;16.482;2023-03-20T01:54:40;99861.69;;;4.43;100.00
35519;BME280;21627;48.216;16.482;2023-03-20T01:57:43;99865.81;;;4.38;100.00
35519;BME280;21627;48.216;16.482;2023-03-20T02:00:10;99857.03;;;4.28;100.00
35519;BME280;21627;48.216;16.482;2023-03-20T02:02:39;99869.16;;;4.35;100.00
35519;BME280;21627;48.216;16.482;2023-03-20T02:05:10;99867.31;;;4.29;100.00
35519;BME280;21627;48.216;16.482;2023-03-20T02:07:39;99866.41;;;4.27;100.00
35519;BME280;21627;48.216;16.482;2023-03-20T02:10:13;99858.56;;;4.21;100.00
35519;BME280;21627;48.216;16.482;2023-03-20T02:12:42;99871.25;;;4.18;100.00
35519;BME280;21627;48.216;16.482;2023-03-20T02:15:10;99876.28;;;4.14;100.00
35519;BME280;21627;48.216;16.482;2023-03-20T02:17:40;99864.16;;;4.08;100.00
35519;BME280;21627;48.216;16.482;2023-03-20T02:20:30;99864.94;;;4.05;100.00
35519;BME280;21627;48.216;16.482;2023-03-20T02:41:21;99879.13;;;3.94;100.00
35519;BME280;21627;48.216;16.482;2023-03-20T02:50:11;99881.41;;;3.85;100.00
35519;BME280;21627;48.216;16.482;2023-03-20T02:53:42;99881.41;;;3.85;100.00
35519;BME280;21627;48.216;16.482;2023-03-20T03:01:38;99870.94;;;3.76;100.00
35519;BME280;21627;48.216;16.482;2023-03-20T03:04:29;99875.22;;;3.77;100.00
35519;BME280;21627;48.216;16.482;2023-03-20T03:07:02;99885.59;;;3.81;100.00
35519;BME280;21627;48.216;16.482;2023-03-20T03:09:50;99883.59;;;3.71;100.00
35519;BME280;21627;48.216;16.482;2023-03-20T03:12:24;99872.84;;;3.54;100.00
35519;BME280;21627;48.216;16.482;2023-03-20T03:15:04;99884.06;;;3.59;100.00
35519;BME280;21627;48.216;16.482;2023-03-20T03:17:35;99872.75;;;3.51;100.00
35519;BME280;21627;48.216;16.482;2023-03-20T03:20:23;99885.72;;;3.57;100.00
35519;BME280;21627;48.216;16.482;2023-03-20T03:22:51;99881.34;;;3.53;100.00
35519;BME280;21627;48.216;16.482;2023-03-20T03:25:23;99884.69;;;3.51;100.00
35519;BME280;21627;48.216;16.482;2023-03-20T03:30:50;99882.94;;;3.50;100.00
35519;BME280;21627;48.216;16.482;2023-03-20T03:33:29;99877.78;;;3.48;100.00
35519;BME280;21627;48.216;16.482;2023-03-20T03:46:08;99885.06;;;3.36;100.00
35519;BME280;21627;48.216;16.482;2023-03-20T03:48:18;99884.09;;;3.32;100.00
35519;BME280;21627;48.216;16.482;2023-03-20T03:50:52;99884.88;;;3.30;100.00
35519;BME280;21627;48.216;16.482;2023-03-20T03:53:26;99882.28;;;3.28;100.00
35519;BME280;21627;48.216;16.482;2023-03-20T03:56:01;99875.56;;;3.32;100.00
35519;BME280;21627;48.216;16.482;2023-03-20T03:58:32;99873.78;;;3.29;100.00
35519;BME280;21627;48.216;16.482;2023-03-20T04:01:03;99866.13;;;3.29;100.00
35519;BME280;21627;48.216;16.482;2023-03-20T04:03:37;99880.75;;;3.33;100.00
35519;BME280;21627;48.216;16.482;2023-03-20T04:06:06;99886.66;;;3.32;100.00
35519;BME280;21627;48.216;16.482;2023-03-20T04:08:35;99884.94;;;3.31;100.00
35519;BME280;21627;48.216;16.482;2023-03-20T04:11:03;99884.94;;;3.31;100.00
35519;BME280;21627;48.216;16.482;2023-03-20T04:13:30;99882.44;;;3.33;100.00
35519;BME280;21627;48.216;16.482;2023-03-20T04:15:57;99885.78;;;3.32;100.00
35519;BME280;21627;48.216;16.482;2023-03-20T04:18:24;99886.63;;;3.31;100.00
35519;BME280;21627;48.216;16.482;2023-03-20T04:20:51;99868.50;;;3.23;100.00
35519;BME280;21627;48.216;16.482;2023-03-20T04:23:19;99880.59;;;3.29;100.00
35519;BME280;21627;48.216;16.482;2023-03-20T04:25:46;99877.16;;;3.28;100.00
35519;BME280;21627;48.216;16.482;2023-03-20T04:28:13;99872.09;;;3.30;100.00
35519;BME280;21627;48.216;16.482;2023-03-20T04:30:42;99865.94;;;3.23;100.00
35519;BME280;21627;48.216;16.482;2023-03-20T04:33:14;99879.88;;;3.33;100.00
35519;BME280;21627;48.216;16.482;2023-03-20T04:35:41;99867.75;;;3.27;100.00
35519;BME280;21627;48.216;16.482;2023-03-20T04:38:08;99869.50;;;3.28;100.00
35519;BME280;21627;48.216;16.482;2023-03-20T04:40:35;99884.31;;;3.38;100.00
35519;BME280;21627;48.216;16.482;2023-03-20T04:43:03;99878.28;;;3.36;100.00
35519;BME280;21627;48.216;16.482;2023-03-20T04:45:30;99881.13;;;3.45;100.00
35519;BME280;21627;48.216;16.482;2023-03-20T04:47:57;99881.91;;;3.44;100.00
35519;BME280;21627;48.216;16.482;2023-03-20T04:50:24;99877.66;;;3.45;100.00
35519;BME280;21627;48.216;16.482;2023-03-20T04:52:51;99878.66;;;3.49;100.00
35519;BME280;21627;48.216;16.482;2023-03-20T04:55:20;99895.94;;;3.57;100.00
35519;BME280;21627;48.216;16.482;2023-03-20T04:57:48;99888.88;;;3.49;100.00
35519;BME280;21627;48.216;16.482;2023-03-20T05:00:16;99888.81;;;3.47;100.00
35519;BME280;21627;48.216;16.482;2023-03-20T05:02:44;99885.78;;;3.32;100.00
35519;BME280;21627;48.216;16.482;2023-03-20T05:05:12;99904.75;;;3.38;100.00
35519;BME280;21627;48.216;16.482;2023-03-20T05:07:39;99908.88;;;3.35;100.00
35519;BME280;21627;48.216;16.482;2023-03-20T05:10:07;99925.72;;;3.28;100.00
35519;BME280;21627;48.216;16.482;2023-03-20T05:12:34;99930.69;;;3.23;100.00
35519;BME280;21627;48.216;16.482;2023-03-20T05:15:02;99912.34;;;3.10;100.00
35519;BME280;21627;48.216;16.482;2023-03-20T05:17:29;99913.16;;;3.09;100.00
35519;BME280;21627;48.216;16.482;2023-03-20T05:19:56;99929.50;;;3.14;100.00
35519;BME280;21627;48.216;16.482;2023-03-20T05:22:23;99931.19;;;3.13;100.00
35519;BME280;21627;48.216;16.482;2023-03-20T05:24:51;99937.09;;;3.12;100.00
35519;BME280;21627;48.216;16.482;2023-03-20T05:27:18;99928.31;;;3.02;100.00
35519;BME280;21627;48.216;16.482;2023-03-20T05:29:45;99928.41;;;3.06;100.00
35519;BME280;21627;48.216;16.482;2023-03-20T05:32:12;99944.00;;;3.15;100.00
35519;BME280;21627;48.216;16.482;2023-03-20T05:34:39;99957.78;;;3.18;100.00
35519;BME280;21627;48.216;16.482;2023-03-20T05:37:06;99957.78;;;3.20;100.00
35519;BME280;21627;48.216;16.482;2023-03-20T05:39:34;99951.88;;;3.21;100.00
35519;BME280;21627;48.216;16.482;2023-03-20T05:42:01;99933.69;;;3.12;100.00
35519;BME280;21627;48.216;16.482;2023-03-20T05:44:28;99964.09;;;3.30;100.00
35519;BME280;21627;48.216;16.482;2023-03-20T05:46:56;99942.53;;;3.21;100.00
35519;BME280;21627;48.216;16.482;2023-03-20T05:49:23;99962.69;;;3.39;100.00
35519;BME280;21627;48.216;16.482;2023-03-20T05:51:51;99969.91;;;3.51;100.00
35519;BME280;21627;48.216;16.482;2023-03-20T05:54:18;99976.25;;;3.64;100.00
35519;BME280;21627;48.216;16.482;2023-03-20T05:56:48;99978.38;;;3.77;100.00
35519;BME280;21627;48.216;16.482;2023-03-20T05:59:15;99979.38;;;3.82;100.00
35519;BME280;21627;48.216;16.482;2023-03-20T06:01:42;99972.78;;;3.89;100.00
35519;BME280;21627;48.216;16.482;2023-03-20T06:04:10;99977.34;;;3.99;100.00
35519;BME280;21627;48.216;16.482;2023-03-20T06:06:37;99981.84;;;4.08;100.00
35519;BME280;21627;48.216;16.482;2023-03-20T06:09:04;99965.69;;;4.09;100.00
35519;BME280;21627;48.216;16.482;2023-03-20T06:11:31;99982.41;;;4.26;100.00
35519;BME280;21627;48.216;16.482;2023-03-20T06:14:02;99966.22;;;4.27;100.00
35519;BME280;21627;48.216;16.482;2023-03-20T06:16:30;99982.00;;;4.43;100.00
35519;BME280;21627;48.216;16.482;2023-03-20T06:18:57;99988.31;;;4.54;100.00
35519;BME280;21627;48.216;16.482;2023-03-20T06:21:25;99990.25;;;4.63;100.00
35519;BME280;21627;48.216;16.482;2023-03-20T06:23:52;99992.25;;;4.73;100.00
35519;BME280;21627;48.216;16.482;2023-03-20T06:26:20;99991.63;;;4.82;100.00
35519;BME280;21627;48.216;16.482;2023-03-20T06:28:47;99984.19;;;4.91;100.00
35519;BME280;21627;48.216;16.482;2023-03-20T06:31:15;99976.66;;;4.97;100.00
35519;BME280;21627;48.216;16.482;2023-03-20T06:33:42;99983.97;;;5.16;100.00
35519;BME280;21627;48.216;16.482;2023-03-20T06:36:11;99982.63;;;5.31;100.00
35519;BME280;21627;48.216;16.482;2023-03-20T06:38:38;99998.47;;;5.49;100.00
35519;BME280;21627;48.216;16.482;2023-03-20T06:41:05;99999.78;;;5.68;100.00
35519;BME280;21627;48.216;16.482;2023-03-20T06:43:32;99998.50;;;5.85;100.00
35519;BME280;21627;48.216;16.482;2023-03-20T06:46:00;99999.84;;;6.06;100.00
35519;BME280;21627;48.216;16.482;2023-03-20T06:48:27;99996.78;;;6.24;100.00
35519;BME280;21627;48.216;16.482;2023-03-20T06:50:54;99993.72;;;6.40;100.00
35519;BME280;21627;48.216;16.482;2023-03-20T06:53:21;100002.06;;;6.72;100.00
35519;BME280;21627;48.216;16.482;2023-03-20T06:55:49;99989.34;;;6.80;100.00
35519;BME280;21627;48.216;16.482;2023-03-20T06:58:17;100000.72;;;6.91;100.00
35519;BME280;21627;48.216;16.482;2023-03-20T07:00:45;100003.47;;;7.01;100.00
35519;BME280;21627;48.216;16.482;2023-03-20T07:03:12;100014.84;;;7.13;100.00
35519;BME280;21627;48.216;16.482;2023-03-20T07:05:41;100007.34;;;7.26;100.00
35519;BME280;21627;48.216;16.482;2023-03-20T07:08:09;100003.31;;;7.43;100.00
35519;BME280;21627;48.216;16.482;2023-03-20T07:10:36;100002.63;;;7.52;100.00
35519;BME280;21627;48.216;16.482;2023-03-20T07:13:04;100001.13;;;7.65;100.00
35519;BME280;21627;48.216;16.482;2023-03-20T07:15:31;100002.13;;;7.74;100.00
35519;BME280;21627;48.216;16.482;2023-03-20T07:17:58;100009.19;;;7.86;100.00
35519;BME280;21627;48.216;16.482;2023-03-20T07:20:25;100009.38;;;8.00;100.00
35519;BME280;21627;48.216;16.482;2023-03-20T07:22:53;100010.44;;;8.16;100.00
35519;BME280;21627;48.216;16.482;2023-03-20T07:25:21;100007.19;;;8.28;100.00
35519;BME280;21627;48.216;16.482;2023-03-20T07:28:07;100015.25;;;8.54;100.00
35519;BME280;21627;48.216;16.482;2023-03-20T07:30:34;100008.91;;;8.99;100.00
35519;BME280;21627;48.216;16.482;2023-03-20T07:33:02;100015.91;;;9.10;100.00
35519;BME280;21627;48.216;16.482;2023-03-20T07:35:29;100005.78;;;9.27;100.00
35519;BME280;21627;48.216;16.482;2023-03-20T07:37:57;100018.00;;;9.48;100.00
35519;BME280;21627;48.216;16.482;2023-03-20T07:40:24;99995.75;;;9.67;97.11
35519;BME280;21627;48.216;16.482;2023-03-20T07:42:51;100006.28;;;9.90;97.54
35519;BME280;21627;48.216;16.482;2023-03-20T07:45:19;100008.06;;;10.02;97.50
35519;BME280;21627;48.216;16.482;2023-03-20T07:47:46;100021.97;;;10.27;94.96
35519;BME280;21627;48.216;16.482;2023-03-20T07:50:15;100009.19;;;10.47;92.18
35519;BME280;21627;48.216;16.482;2023-03-20T07:52:49;100015.31;;;10.69;92.50
35519;BME280;21627;48.216;16.482;2023-03-20T07:55:17;100010.22;;;10.95;91.82
35519;BME280;21627;48.216;16.482;2023-03-20T07:57:45;100015.44;;;11.26;89.40
35519;BME280;21627;48.216;16.482;2023-03-20T08:00:14;100016.34;;;11.43;89.15
35519;BME280;21627;48.216;16.482;2023-03-20T08:02:42;100015.47;;;11.74;87.01
35519;BME280;21627;48.216;16.482;2023-03-20T08:05:09;100008.59;;;11.82;87.47
35519;BME280;21627;48.216;16.482;2023-03-20T08:07:37;100012.00;;;12.18;85.69
35519;BME280;21627;48.216;16.482;2023-03-20T08:10:05;100009.31;;;12.50;83.42
35519;BME280;21627;48.216;16.482;2023-03-20T08:12:32;100011.78;;;12.81;82.51
35519;BME280;21627;48.216;16.482;2023-03-20T08:14:59;100008.16;;;13.05;81.72
35519;BME280;21627;48.216;16.482;2023-03-20T08:17:26;99998.50;;;13.25;78.43
35519;BME280;21627;48.216;16.482;2023-03-20T08:19:53;100009.59;;;13.50;76.71
35519;BME280;21627;48.216;16.482;2023-03-20T08:22:21;100006.81;;;13.75;77.48
35519;BME280;21627;48.216;16.482;2023-03-20T08:24:48;100007.56;;;13.88;75.29
35519;BME280;21627;48.216;16.482;2023-03-20T08:27:16;100001.41;;;13.98;75.67
35519;BME280;21627;48.216;16.482;2023-03-20T08:29:43;100015.91;;;14.22;74.65
35519;BME280;21627;48.216;16.482;2023-03-20T08:32:10;100005.38;;;14.33;74.24
35519;BME280;21627;48.216;16.482;2023-03-20T08:34:37;100011.22;;;14.52;73.91
35519;BME280;21627;48.216;16.482;2023-03-20T08:37:04;100005.91;;;14.62;71.58
35519;BME280;21627;48.216;16.482;2023-03-20T08:39:33;100007.53;;;14.73;70.66
35519;BME280;21627;48.216;16.482;2023-03-20T08:42:01;100003.28;;;14.65;70.58
35519;BME280;21627;48.216;16.482;2023-03-20T08:44:28;100000.41;;;14.87;71.87
35519;BME280;21627;48.216;16.482;2023-03-20T08:46:56;100000.94;;;15.10;70.02
35519;BME280;21627;48.216;16.482;2023-03-20T08:49:25;99996.25;;;15.32;69.64
35519;BME280;21627;48.216;16.482;2023-03-20T08:51:52;99992.47;;;15.52;67.15
35519;BME280;21627;48.216;16.482;2023-03-20T08:54:19;100001.66;;;15.76;67.05
35519;BME280;21627;48.216;16.482;2023-03-20T08:56:46;100004.63;;;16.06;65.61
35519;BME280;21627;48.216;16.482;2023-03-20T08:59:13;100005.88;;;16.30;65.46
35519;BME280;21627;48.216;16.482;2023-03-20T09:01:40;100005.72;;;16.37;63.37
35519;BME280;21627;48.216;16.482;2023-03-20T09:04:16;100006.47;;;16.46;62.64
35519;BME280;21627;48.216;16.482;2023-03-20T09:06:43;100016.47;;;16.65;62.41
35519;BME280;21627;48.216;16.482;2023-03-20T09:09:10;100005.63;;;16.87;62.38
35519;BME280;21627;48.216;16.482;2023-03-20T09:11:41;100001.16;;;16.91;62.08
35519;BME280;21627;48.216;16.482;2023-03-20T09:14:09;100013.78;;;17.12;60.94
35519;BME280;21627;48.216;16.482;2023-03-20T09:16:36;100015.19;;;17.27;59.69
35519;BME280;21627;48.216;16.482;2023-03-20T09:19:04;100013.81;;;17.48;59.93
35519;BME280;21627;48.216;16.482;2023-03-20T09:21:32;100020.13;;;17.75;59.19
35519;BME280;21627;48.216;16.482;2023-03-20T09:23:59;100022.75;;;17.73;57.44
35519;BME280;21627;48.216;16.482;2023-03-20T09:26:26;100025.31;;;17.77;57.16
35519;BME280;21627;48.216;16.482;2023-03-20T09:28:53;100016.66;;;17.74;57.27
35519;BME280;21627;48.216;16.482;2023-03-20T09:31:21;100007.28;;;18.00;56.28
35519;BME280;21627;48.216;16.482;2023-03-20T09:33:49;100008.53;;;18.20;54.89
35519;BME280;21627;48.216;16.482;2023-03-20T09:36:16;100019.22;;;18.43;54.22
35519;BME280;21627;48.216;16.482;2023-03-20T09:38:43;100010.66;;;18.36;53.98
35519;BME280;21627;48.216;16.482;2023-03-20T09:41:21;100018.50;;;18.68;54.26
35519;BME280;21627;48.216;16.482;2023-03-20T09:47:10;100006.34;;;18.96;53.35
35519;BME280;21627;48.216;16.482;2023-03-20T09:55:05;100000.91;;;18.73;52.10
35519;BME280;21627;48.216;16.482;2023-03-20T09:57:39;100008.94;;;18.67;52.25
35519;BME280;21627;48.216;16.482;2023-03-20T10:00:14;100020.34;;;18.64;52.98
35519;BME280;21627;48.216;16.482;2023-03-20T10:02:58;100010.59;;;18.69;52.48
35519;BME280;21627;48.216;16.482;2023-03-20T10:05:38;99997.97;;;18.85;52.38
35519;BME280;21627;48.216;16.482;2023-03-20T10:08:15;99998.75;;;18.87;51.39
35519;BME280;21627;48.216;16.482;2023-03-20T10:17:33;100004.03;;;19.15;51.15
35519;BME280;21627;48.216;16.482;2023-03-20T10:20:11;100000.59;;;19.13;50.25
35519;BME280;21627;48.216;16.482;2023-03-20T10:23:18;99990.75;;;18.92;49.23
35519;BME280;21627;48.216;16.482;2023-03-20T10:25:55;99992.25;;;19.00;51.06
35519;BME280;21627;48.216;16.482;2023-03-20T10:31:32;99979.41;;;19.19;50.75
35519;BME280;21627;48.216;16.482;2023-03-20T10:34:24;99976.44;;;19.30;50.22
35519;BME280;21627;48.216;16.482;2023-03-20T10:42:27;99972.63;;;19.40;49.85
35519;BME280;21627;48.216;16.482;2023-03-20T10:45:08;99976.09;;;19.41;48.70
35519;BME280;21627;48.216;16.482;2023-03-20T10:47:40;99969.78;;;19.46;49.80
35519;BME280;21627;48.216;16.482;2023-03-20T10:50:42;99970.91;;;19.66;48.07
35519;BME280;21627;48.216;16.482;2023-03-20T10:53:30;99957.75;;;19.93;48.30
35519;BME280;21627;48.216;16.482;2023-03-20T10:56:12;99952.09;;;20.28;46.66
35519;BME280;21627;48.216;16.482;2023-03-20T10:58:47;99939.25;;;20.44;46.36
35519;BME280;21627;48.216;16.482;2023-03-20T11:01:17;99949.91;;;20.65;46.38
35519;BME280;21627;48.216;16.482;2023-03-20T11:03:46;99944.97;;;21.01;45.51
35519;BME280;21627;48.216;16.482;2023-03-20T11:06:19;99932.97;;;20.94;44.18
35519;BME280;21627;48.216;16.482;2023-03-20T11:08:51;99940.81;;;20.95;44.25
35519;BME280;21627;48.216;16.482;2023-03-20T11:11:29;99933.81;;;21.16;43.74
35519;BME280;21627;48.216;16.482;2023-03-20T11:14:17;99936.19;;;21.02;43.49
35519;BME280;21627;48.216;16.482;2023-03-20T11:16:53;99935.47;;;21.19;43.02
35519;BME280;21627;48.216;16.482;2023-03-20T11:19:22;99923.31;;;21.38;42.90
35519;BME280;21627;48.216;16.482;2023-03-20T11:21:56;99934.25;;;21.06;42.50
35519;BME280;21627;48.216;16.482;2023-03-20T11:27:12;99924.91;;;21.43;41.97
35519;BME280;21627;48.216;16.482;2023-03-20T11:29:41;99912.75;;;21.60;42.26
35519;BME280;21627;48.216;16.482;2023-03-20T11:32:30;99925.69;;;21.86;41.87
35519;BME280;21627;48.216;16.482;2023-03-20T11:37:50;99919.84;;;21.79;40.88
35519;BME280;21627;48.216;16.482;2023-03-20T11:40:32;99903.44;;;21.93;41.36
35519;BME280;21627;48.216;16.482;2023-03-20T11:45:37;99894.41;;;22.17;40.66
35519;BME280;21627;48.216;16.482;2023-03-20T11:49:00;99892.03;;;22.13;39.22
35519;BME280;21627;48.216;16.482;2023-03-20T11:51:04;99903.25;;;21.97;39.70
35519;BME280;21627;48.216;16.482;2023-03-20T11:53:39;99888.97;;;21.42;40.98
35519;BME280;21627;48.216;16.482;2023-03-20T11:59:02;99899.88;;;21.94;41.31
35519;BME280;21627;48.216;16.482;2023-03-20T12:01:42;99888.09;;;22.02;39.99
35519;BME280;21627;48.216;16.482;2023-03-20T12:04:26;99896.22;;;21.77;40.88
35519;BME280;21627;48.216;16.482;2023-03-20T12:07:17;99887.34;;;21.99;40.35
35519;BME280;21627;48.216;16.482;2023-03-20T12:10:05;99885.22;;;22.28;39.87
35519;BME280;21627;48.216;16.482;2023-03-20T12:12:51;99865.88;;;22.65;39.76
35519;BME280;21627;48.216;16.482;2023-03-20T12:15:43;99868.97;;;22.18;39.61
35519;BME280;21627;48.216;16.482;2023-03-20T12:18:48;99871.41;;;21.83;40.33
35519;BME280;21627;48.216;16.482;2023-03-20T12:21:26;99879.09;;;21.88;41.46
35519;BME280;21627;48.216;16.482;2023-03-20T12:27:29;99879.81;;;21.91;39.96
35519;BME280;21627;48.216;16.482;2023-03-20T12:30:30;99873.78;;;22.08;39.78
35519;BME280;21627;48.216;16.482;2023-03-20T12:33:39;99869.97;;;22.53;39.54
35519;BME280;21627;48.216;16.482;2023-03-20T12:36:16;99870.88;;;23.07;39.16
35519;BME280;21627;48.216;16.482;2023-03-20T12:38:44;99852.63;;;23.20;38.09
35519;BME280;21627;48.216;16.482;2023-03-20T12:41:24;99844.00;;;23.69;39.15
35519;BME280;21627;48.216;16.482;2023-03-20T12:56:20;99874.63;;;24.22;36.18
35519;BME280;21627;48.216;16.482;2023-03-20T12:59:11;99870.47;;;23.50;37.78
35519;BME280;21627;48.216;16.482;2023-03-20T13:04:46;99881.91;;;22.22;39.78
35519;BME280;21627;48.216;16.482;2023-03-20T13:07:24;99881.44;;;21.75;40.34
35519;BME280;21627;48.216;16.482;2023-03-20T13:10:01;99886.53;;;21.78;42.09
35519;BME280;21627;48.216;16.482;2023-03-20T13:19:32;99875.53;;;22.28;41.37
35519;BME280;21627;48.216;16.482;2023-03-20T13:22:24;99878.56;;;22.19;41.22
35519;BME280;21627;48.216;16.482;2023-03-20T13:25:15;99864.31;;;21.85;40.13
35519;BME280;21627;48.216;16.482;2023-03-20T13:41:52;99850.97;;;21.06;43.07
35519;BME280;21627;48.216;16.482;2023-03-20T13:44:22;99845.97;;;20.80;44.00
35519;BME280;21627;48.216;16.482;2023-03-20T13:47:01;99855.94;;;20.71;44.09
35519;BME280;21627;48.216;16.482;2023-03-20T13:49:57;99839.69;;;20.38;44.83
35519;BME280;21627;48.216;16.482;2023-03-20T13:52:33;99845.69;;;20.18;45.14
35519;BME280;21627;48.216;16.482;2023-03-20T14:03:43;99836.06;;;19.46;47.02
35519;BME280;21627;48.216;16.482;2023-03-20T14:08:59;99850.13;;;19.44;47.21
35519;BME280;21627;48.216;16.482;2023-03-20T14:11:36;99850.56;;;19.57;46.23
35519;BME280;21627;48.216;16.482;2023-03-20T14:17:25;99848.22;;;20.67;43.69
35519;BME280;21627;48.216;16.482;2023-03-20T14:19:55;99843.06;;;20.42;44.88
35519;BME280;21627;48.216;16.482;2023-03-20T14:22:35;99852.63;;;20.43;43.76
35519;BME280;21627;48.216;16.482;2023-03-20T14:25:18;99842.09;;;20.21;44.61
35519;BME280;21627;48.216;16.482;2023-03-20T14:28:07;99847.00;;;19.83;45.30
35519;BME280;21627;48.216;16.482;2023-03-20T14:30:49;99851.28;;;19.60;46.90
35519;BME280;21627;48.216;16.482;2023-03-20T14:36:18;99839.69;;;19.42;47.25
35519;BME280;21627;48.216;16.482;2023-03-20T14:48:03;99832.22;;;18.78;49.15
35519;BME280;21627;48.216;16.482;2023-03-20T14:56:12;99832.09;;;18.55;49.80
35519;BME280;21627;48.216;16.482;2023-03-20T14:58:55;99830.19;;;18.60;49.99
35519;BME280;21627;48.216;16.482;2023-03-20T15:09:50;99834.25;;;18.12;50.97
35519;BME280;21627;48.216;16.482;2023-03-20T15:12:24;99832.72;;;18.05;50.45
35519;BME280;21627;48.216;16.482;2023-03-20T15:15:05;99827.63;;;18.01;51.37
35519;BME280;21627;48.216;16.482;2023-03-20T15:17:38;99829.50;;;17.95;51.30
35519;BME280;21627;48.216;16.482;2023-03-20T15:20:21;99825.03;;;17.99;51.47
35519;BME280;21627;48.216;16.482;2023-03-20T15:22:56;99818.34;;;17.89;51.14
35519;BME280;21627;48.216;16.482;2023-03-20T15:28:10;99844.19;;;17.68;51.04
35519;BME280;21627;48.216;16.482;2023-03-20T15:30:38;99845.66;;;17.46;51.61
35519;BME280;21627;48.216;16.482;2023-03-20T15:33:28;99829.41;;;17.36;52.02
35519;BME280;21627;48.216;16.482;2023-03-20T15:35:57;99832.91;;;17.34;52.40
35519;BME280;21627;48.216;16.482;2023-03-20T15:38:31;99845.25;;;17.28;52.31
35519;BME280;21627;48.216;16.482;2023-03-20T15:41:06;99838.72;;;17.12;52.17
35519;BME280;21627;48.216;16.482;2023-03-20T15:43:34;99848.97;;;17.20;52.69
35519;BME280;21627;48.216;16.482;2023-03-20T15:46:04;99844.13;;;17.06;51.57
35519;BME280;21627;48.216;16.482;2023-03-20T15:48:48;99852.88;;;17.03;51.72
35519;BME280;21627;48.216;16.482;2023-03-20T15:51:17;99849.63;;;16.94;51.43
35519;BME280;21627;48.216;16.482;2023-03-20T15:53:46;99854.31;;;16.81;51.52
35519;BME280;21627;48.216;16.482;2023-03-20T15:56:17;99852.56;;;16.80;51.98
35519;BME280;21627;48.216;16.482;2023-03-20T15:58:49;99853.47;;;16.79;52.27
35519;BME280;21627;48.216;16.482;2023-03-20T16:01:23;99845.84;;;16.68;51.98
35519;BME280;21627;48.216;16.482;2023-03-20T16:03:56;99839.13;;;16.58;51.92
35519;BME280;21627;48.216;16.482;2023-03-20T16:06:26;99854.03;;;16.53;52.09